sensor_id;sensor_type;location;lat;lon;timestamp;P1;durP1;ratioP1;P2;durP2;ratioP2
70558;SDS011;58108;48.094;11.838;2023-09-07T00:00:19;7.67;;;3.63;;
70558;SDS011;58108;48.094;11.838;2023-09-07T00:02:44;6.73;;;3.47;;
70558;SDS011;58108;48.094;11.838;2023-09-07T00:05:09;7.47;;;3.40;;
70558;SDS011;58108;48.094;11.838;2023-09-07T00:07:35;7.00;;;3.40;;
70558;SDS011;58108;48.094;11.838;2023-09-07T00:10:00;7.40;;;3.57;;
70558;SDS011;58108;48.094;11.838;2023-09-07T00:12:26;7.67;;;3.60;;
70558;SDS011;58108;48.094;11.838;2023-09-07T00:14:52;8.50;;;3.70;;
70558;SDS011;58108;48.094;11.838;2023-09-07T00:17:17;8.82;;;3.95;;
70558;SDS011;58108;48.094;11.838;2023-09-07T00:19:42;7.10;;;3.30;;
70558;SDS011;58108;48.094;11.838;2023-09-07T00:22:07;7.70;;;3.10;;
70558;SDS011;58108;48.094;11.838;2023-09-07T00:24:34;6.88;;;3.47;;
70558;SDS011;58108;48.094;11.838;2023-09-07T00:26:59;7.13;;;3.30;;
70558;SDS011;58108;48.094;11.838;2023-09-07T00:29:24;6.10;;;3.33;;
70558;SDS011;58108;48.094;11.838;2023-09-07T00:31:50;9.23;;;3.40;;
70558;SDS011;58108;48.094;11.838;2023-09-07T00:34:15;8.70;;;3.30;;
70558;SDS011;58108;48.094;11.838;2023-09-07T00:36:40;6.87;;;3.43;;
70558;SDS011;58108;48.094;11.838;2023-09-07T00:39:05;7.00;;;3.33;;
70558;SDS011;58108;48.094;11.838;2023-09-07T00:41:30;6.77;;;3.10;;
70558;SDS011;58108;48.094;11.838;2023-09-07T00:43:56;8.17;;;3.23;;
70558;SDS011;58108;48.094;11.838;2023-09-07T00:46:21;7.13;;;3.23;;
70558;SDS011;58108;48.094;11.838;2023-09-07T00:48:46;7.75;;;3.05;;
70558;SDS011;58108;48.094;11.838;2023-09-07T00:51:12;5.77;;;2.43;;
70558;SDS011;58108;48.094;11.838;2023-09-07T00:53:37;6.07;;;3.10;;
70558;SDS011;58108;48.094;11.838;2023-09-07T00:56:03;7.63;;;3.50;;
70558;SDS011;58108;48.094;11.838;2023-09-07T00:58:28;7.43;;;4.10;;
70558;SDS011;58108;48.094;11.838;2023-09-07T01:00:54;7.47;;;3.20;;
70558;SDS011;58108;48.094;11.838;2023-09-07T01:03:20;8.13;;;3.63;;
70558;SDS011;58108;48.094;11.838;2023-09-07T01:08:12;5.95;;;3.38;;
70558;SDS011;58108;48.094;11.838;2023-09-07T01:10:38;7.72;;;3.40;;
70558;SDS011;58108;48.094;11.838;2023-09-07T01:13:03;6.80;;;3.23;;
70558;SDS011;58108;48.094;11.838;2023-09-07T01:15:28;6.80;;;3.43;;
70558;SDS011;58108;48.094;11.838;2023-09-07T01:17:54;10.33;;;4.00;;
70558;SDS011;58108;48.094;11.838;2023-09-07T01:20:20;7.43;;;3.67;;
70558;SDS011;58108;48.094;11.838;2023-09-07T01:22:47;6.63;;;3.67;;
70558;SDS011;58108;48.094;11.838;2023-09-07T01:25:13;7.22;;;3.60;;
70558;SDS011;58108;48.094;11.838;2023-09-07T01:27:38;8.93;;;3.92;;
70558;SDS011;58108;48.094;11.838;2023-09-07T01:30:03;8.13;;;3.53;;
70558;SDS011;58108;48.094;11.838;2023-09-07T01:32:28;7.03;;;3.47;;
70558;SDS011;58108;48.094;11.838;2023-09-07T01:34:54;7.27;;;3.87;;
70558;SDS011;58108;48.094;11.838;2023-09-07T01:37:21;8.02;;;4.13;;
70558;SDS011;58108;48.094;11.838;2023-09-07T01:39:46;8.07;;;3.77;;
70558;SDS011;58108;48.094;11.838;2023-09-07T01:42:11;8.07;;;3.77;;
70558;SDS011;58108;48.094;11.838;2023-09-07T01:44:36;9.23;;;3.80;;
70558;SDS011;58108;48.094;11.838;2023-09-07T01:47:03;9.50;;;4.20;;
70558;SDS011;58108;48.094;11.838;2023-09-07T01:49:28;9.30;;;4.40;;
70558;SDS011;58108;48.094;11.838;2023-09-07T01:51:55;10.45;;;4.40;;
70558;SDS011;58108;48.094;11.838;2023-09-07T01:54:21;8.00;;;4.20;;
70558;SDS011;58108;48.094;11.838;2023-09-07T01:56:46;8.90;;;4.13;;
70558;SDS011;58108;48.094;11.838;2023-09-07T01:59:11;8.20;;;4.90;;
70558;SDS011;58108;48.094;11.838;2023-09-07T02:01:36;9.20;;;4.90;;
70558;SDS011;58108;48.094;11.838;2023-09-07T02:04:01;8.77;;;4.17;;
70558;SDS011;58108;48.094;11.838;2023-09-07T02:06:27;9.60;;;4.47;;
70558;SDS011;58108;48.094;11.838;2023-09-07T02:08:52;8.07;;;4.40;;
70558;SDS011;58108;48.094;11.838;2023-09-07T02:11:17;8.37;;;3.80;;
70558;SDS011;58108;48.094;11.838;2023-09-07T02:13:42;7.87;;;3.80;;
70558;SDS011;58108;48.094;11.838;2023-09-07T02:16:08;8.23;;;4.13;;
70558;SDS011;58108;48.094;11.838;2023-09-07T02:18:33;7.70;;;3.97;;
70558;SDS011;58108;48.094;11.838;2023-09-07T02:21:05;9.90;;;4.47;;
70558;SDS011;58108;48.094;11.838;2023-09-07T02:23:30;9.10;;;4.43;;
70558;SDS011;58108;48.094;11.838;2023-09-07T02:25:56;8.65;;;4.28;;
70558;SDS011;58108;48.094;11.838;2023-09-07T02:28:22;8.77;;;4.28;;
70558;SDS011;58108;48.094;11.838;2023-09-07T02:30:47;8.37;;;4.17;;
70558;SDS011;58108;48.094;11.838;2023-09-07T02:33:12;9.27;;;4.20;;
70558;SDS011;58108;48.094;11.838;2023-09-07T02:35:37;8.07;;;4.13;;
70558;SDS011;58108;48.094;11.838;2023-09-07T02:38:02;7.87;;;4.17;;
70558;SDS011;58108;48.094;11.838;2023-09-07T02:40:28;8.67;;;4.30;;
70558;SDS011;58108;48.094;11.838;2023-09-07T02:42:53;7.60;;;4.10;;
70558;SDS011;58108;48.094;11.838;2023-09-07T02:45:18;8.17;;;4.07;;
70558;SDS011;58108;48.094;11.838;2023-09-07T02:47:43;7.43;;;4.17;;
70558;SDS011;58108;48.094;11.838;2023-09-07T02:50:08;8.20;;;4.30;;
70558;SDS011;58108;48.094;11.838;2023-09-07T02:52:34;7.03;;;3.70;;
70558;SDS011;58108;48.094;11.838;2023-09-07T02:54:59;9.48;;;3.63;;
70558;SDS011;58108;48.094;11.838;2023-09-07T02:57:24;8.73;;;3.50;;
70558;SDS011;58108;48.094;11.838;2023-09-07T02:59:49;8.03;;;3.10;;
70558;SDS011;58108;48.094;11.838;2023-09-07T03:02:14;6.80;;;3.60;;
70558;SDS011;58108;48.094;11.838;2023-09-07T03:04:40;7.87;;;4.07;;
70558;SDS011;58108;48.094;11.838;2023-09-07T03:07:05;8.27;;;3.87;;
70558;SDS011;58108;48.094;11.838;2023-09-07T03:09:30;9.67;;;3.90;;
70558;SDS011;58108;48.094;11.838;2023-09-07T03:11:55;8.73;;;3.50;;
70558;SDS011;58108;48.094;11.838;2023-09-07T03:14:21;9.60;;;4.03;;
70558;SDS011;58108;48.094;11.838;2023-09-07T03:16:46;7.70;;;3.33;;
70558;SDS011;58108;48.094;11.838;2023-09-07T03:19:15;8.75;;;3.10;;
70558;SDS011;58108;48.094;11.838;2023-09-07T03:21:40;7.23;;;3.10;;
70558;SDS011;58108;48.094;11.838;2023-09-07T03:24:05;7.73;;;3.10;;
70558;SDS011;58108;48.094;11.838;2023-09-07T03:26:30;7.00;;;3.57;;
70558;SDS011;58108;48.094;11.838;2023-09-07T03:28:55;7.57;;;3.53;;
70558;SDS011;58108;48.094;11.838;2023-09-07T03:31:22;8.52;;;3.55;;
70558;SDS011;58108;48.094;11.838;2023-09-07T03:33:47;9.13;;;3.77;;
70558;SDS011;58108;48.094;11.838;2023-09-07T03:36:12;7.50;;;3.83;;
70558;SDS011;58108;48.094;11.838;2023-09-07T03:38:39;8.10;;;3.75;;
70558;SDS011;58108;48.094;11.838;2023-09-07T03:41:05;7.57;;;4.00;;
70558;SDS011;58108;48.094;11.838;2023-09-07T03:43:30;7.97;;;3.80;;
70558;SDS011;58108;48.094;11.838;2023-09-07T03:45:56;8.67;;;3.60;;
70558;SDS011;58108;48.094;11.838;2023-09-07T03:48:22;8.93;;;3.78;;
70558;SDS011;58108;48.094;11.838;2023-09-07T03:50:47;7.87;;;3.60;;
70558;SDS011;58108;48.094;11.838;2023-09-07T03:53:12;6.93;;;3.50;;
70558;SDS011;58108;48.094;11.838;2023-09-07T03:55:41;8.57;;;3.70;;
70558;SDS011;58108;48.094;11.838;2023-09-07T03:58:06;7.82;;;3.60;;
70558;SDS011;58108;48.094;11.838;2023-09-07T04:00:32;8.17;;;3.83;;
70558;SDS011;58108;48.094;11.838;2023-09-07T04:02:57;8.32;;;4.20;;
70558;SDS011;58108;48.094;11.838;2023-09-07T04:05:22;9.30;;;4.13;;
70558;SDS011;58108;48.094;11.838;2023-09-07T04:07:47;7.17;;;3.63;;
70558;SDS011;58108;48.094;11.838;2023-09-07T04:10:12;8.63;;;4.00;;
70558;SDS011;58108;48.094;11.838;2023-09-07T04:12:37;9.17;;;4.20;;
70558;SDS011;58108;48.094;11.838;2023-09-07T04:15:03;7.83;;;4.03;;
70558;SDS011;58108;48.094;11.838;2023-09-07T04:17:28;10.30;;;4.32;;
70558;SDS011;58108;48.094;11.838;2023-09-07T04:19:53;9.67;;;4.50;;
70558;SDS011;58108;48.094;11.838;2023-09-07T04:22:19;9.13;;;4.13;;
70558;SDS011;58108;48.094;11.838;2023-09-07T04:24:47;9.20;;;4.60;;
70558;SDS011;58108;48.094;11.838;2023-09-07T04:27:12;9.88;;;4.57;;
70558;SDS011;58108;48.094;11.838;2023-09-07T04:29:37;10.13;;;4.80;;
70558;SDS011;58108;48.094;11.838;2023-09-07T04:32:02;11.83;;;5.10;;
70558;SDS011;58108;48.094;11.838;2023-09-07T04:34:27;10.80;;;4.63;;
70558;SDS011;58108;48.094;11.838;2023-09-07T04:36:52;9.30;;;4.10;;
70558;SDS011;58108;48.094;11.838;2023-09-07T04:39:18;9.37;;;4.50;;
70558;SDS011;58108;48.094;11.838;2023-09-07T04:41:43;8.93;;;4.20;;
70558;SDS011;58108;48.094;11.838;2023-09-07T04:44:08;8.33;;;4.30;;
70558;SDS011;58108;48.094;11.838;2023-09-07T04:46:33;8.93;;;4.47;;
70558;SDS011;58108;48.094;11.838;2023-09-07T04:48:58;8.80;;;4.07;;
70558;SDS011;58108;48.094;11.838;2023-09-07T04:51:24;9.07;;;4.60;;
70558;SDS011;58108;48.094;11.838;2023-09-07T04:53:50;7.97;;;4.25;;
70558;SDS011;58108;48.094;11.838;2023-09-07T04:56:16;9.83;;;4.30;;
70558;SDS011;58108;48.094;11.838;2023-09-07T04:58:41;11.63;;;4.60;;
70558;SDS011;58108;48.094;11.838;2023-09-07T05:01:07;9.47;;;4.53;;
70558;SDS011;58108;48.094;11.838;2023-09-07T05:03:35;10.30;;;4.70;;
70558;SDS011;58108;48.094;11.838;2023-09-07T05:06:01;10.50;;;4.43;;
70558;SDS011;58108;48.094;11.838;2023-09-07T05:08:28;8.13;;;4.30;;
70558;SDS011;58108;48.094;11.838;2023-09-07T05:10:56;9.67;;;4.57;;
70558;SDS011;58108;48.094;11.838;2023-09-07T05:13:22;9.80;;;5.15;;
70558;SDS011;58108;48.094;11.838;2023-09-07T05:15:48;12.23;;;5.33;;
70558;SDS011;58108;48.094;11.838;2023-09-07T05:18:14;12.05;;;5.65;;
70558;SDS011;58108;48.094;11.838;2023-09-07T05:20:39;10.17;;;4.93;;
70558;SDS011;58108;48.094;11.838;2023-09-07T05:23:04;10.70;;;4.93;;
70558;SDS011;58108;48.094;11.838;2023-09-07T05:25:29;10.33;;;5.00;;
70558;SDS011;58108;48.094;11.838;2023-09-07T05:27:54;12.00;;;5.80;;
70558;SDS011;58108;48.094;11.838;2023-09-07T05:30:20;9.77;;;5.20;;
70558;SDS011;58108;48.094;11.838;2023-09-07T05:32:45;12.43;;;5.73;;
70558;SDS011;58108;48.094;11.838;2023-09-07T05:35:10;13.00;;;5.90;;
70558;SDS011;58108;48.094;11.838;2023-09-07T05:37:37;11.53;;;5.33;;
70558;SDS011;58108;48.094;11.838;2023-09-07T05:40:02;11.27;;;5.40;;
70558;SDS011;58108;48.094;11.838;2023-09-07T05:42:28;12.77;;;5.80;;
70558;SDS011;58108;48.094;11.838;2023-09-07T05:44:53;12.00;;;6.13;;
70558;SDS011;58108;48.094;11.838;2023-09-07T05:47:19;11.77;;;6.27;;
70558;SDS011;58108;48.094;11.838;2023-09-07T05:49:44;13.53;;;6.17;;
70558;SDS011;58108;48.094;11.838;2023-09-07T05:52:09;13.33;;;6.17;;
70558;SDS011;58108;48.094;11.838;2023-09-07T05:54:34;13.23;;;6.30;;
70558;SDS011;58108;48.094;11.838;2023-09-07T05:56:59;12.50;;;6.87;;
70558;SDS011;58108;48.094;11.838;2023-09-07T05:59:24;13.77;;;6.27;;
70558;SDS011;58108;48.094;11.838;2023-09-07T06:01:49;12.47;;;5.90;;
70558;SDS011;58108;48.094;11.838;2023-09-07T06:04:15;10.30;;;6.00;;
70558;SDS011;58108;48.094;11.838;2023-09-07T06:06:40;12.63;;;5.90;;
70558;SDS011;58108;48.094;11.838;2023-09-07T06:09:05;10.30;;;5.40;;
70558;SDS011;58108;48.094;11.838;2023-09-07T06:11:30;11.67;;;6.00;;
70558;SDS011;58108;48.094;11.838;2023-09-07T06:13:57;11.23;;;5.83;;
70558;SDS011;58108;48.094;11.838;2023-09-07T06:16:22;11.80;;;6.30;;
70558;SDS011;58108;48.094;11.838;2023-09-07T06:18:47;13.00;;;6.60;;
70558;SDS011;58108;48.094;11.838;2023-09-07T06:21:12;12.63;;;6.03;;
70558;SDS011;58108;48.094;11.838;2023-09-07T06:23:38;13.48;;;6.57;;
70558;SDS011;58108;48.094;11.838;2023-09-07T06:26:03;12.63;;;6.73;;
70558;SDS011;58108;48.094;11.838;2023-09-07T06:28:28;12.50;;;6.90;;
70558;SDS011;58108;48.094;11.838;2023-09-07T06:30:53;13.30;;;7.00;;
70558;SDS011;58108;48.094;11.838;2023-09-07T06:33:19;14.43;;;6.32;;
70558;SDS011;58108;48.094;11.838;2023-09-07T06:35:44;11.73;;;6.30;;
70558;SDS011;58108;48.094;11.838;2023-09-07T06:38:09;10.53;;;5.87;;
70558;SDS011;58108;48.094;11.838;2023-09-07T06:40:34;13.40;;;6.53;;
70558;SDS011;58108;48.094;11.838;2023-09-07T06:42:59;12.20;;;6.30;;
70558;SDS011;58108;48.094;11.838;2023-09-07T06:45:25;11.07;;;6.20;;
70558;SDS011;58108;48.094;11.838;2023-09-07T06:47:50;12.50;;;6.83;;
70558;SDS011;58108;48.094;11.838;2023-09-07T06:50:16;11.57;;;6.20;;
70558;SDS011;58108;48.094;11.838;2023-09-07T06:52:41;12.20;;;6.77;;
70558;SDS011;58108;48.094;11.838;2023-09-07T06:55:06;10.67;;;5.93;;
70558;SDS011;58108;48.094;11.838;2023-09-07T06:57:31;11.88;;;6.22;;
70558;SDS011;58108;48.094;11.838;2023-09-07T06:59:58;13.47;;;6.03;;
70558;SDS011;58108;48.094;11.838;2023-09-07T07:02:23;11.87;;;6.40;;
70558;SDS011;58108;48.094;11.838;2023-09-07T07:04:48;10.75;;;6.13;;
70558;SDS011;58108;48.094;11.838;2023-09-07T07:07:14;13.25;;;7.05;;
70558;SDS011;58108;48.094;11.838;2023-09-07T07:09:39;11.67;;;6.30;;
70558;SDS011;58108;48.094;11.838;2023-09-07T07:12:05;12.50;;;6.83;;
70558;SDS011;58108;48.094;11.838;2023-09-07T07:14:30;10.03;;;6.17;;
70558;SDS011;58108;48.094;11.838;2023-09-07T07:16:55;12.97;;;6.63;;
70558;SDS011;58108;48.094;11.838;2023-09-07T07:19:20;10.97;;;6.27;;
70558;SDS011;58108;48.094;11.838;2023-09-07T07:21:45;14.07;;;6.33;;
70558;SDS011;58108;48.094;11.838;2023-09-07T07:24:11;11.37;;;6.40;;
70558;SDS011;58108;48.094;11.838;2023-09-07T07:26:36;10.70;;;6.17;;
70558;SDS011;58108;48.094;11.838;2023-09-07T07:29:01;13.63;;;6.93;;
70558;SDS011;58108;48.094;11.838;2023-09-07T07:31:28;12.03;;;6.70;;
70558;SDS011;58108;48.094;11.838;2023-09-07T07:33:53;11.70;;;6.50;;
70558;SDS011;58108;48.094;11.838;2023-09-07T07:36:18;12.82;;;7.03;;
70558;SDS011;58108;48.094;11.838;2023-09-07T07:38:43;11.73;;;6.10;;
70558;SDS011;58108;48.094;11.838;2023-09-07T07:41:08;11.40;;;6.60;;
70558;SDS011;58108;48.094;11.838;2023-09-07T07:43:34;11.45;;;6.65;;
70558;SDS011;58108;48.094;11.838;2023-09-07T07:45:59;11.05;;;5.90;;
70558;SDS011;58108;48.094;11.838;2023-09-07T07:48:24;9.93;;;5.83;;
70558;SDS011;58108;48.094;11.838;2023-09-07T07:50:49;10.60;;;5.73;;
70558;SDS011;58108;48.094;11.838;2023-09-07T07:53:15;10.00;;;5.23;;
70558;SDS011;58108;48.094;11.838;2023-09-07T07:55:40;9.97;;;5.63;;
70558;SDS011;58108;48.094;11.838;2023-09-07T07:58:09;9.53;;;5.77;;
70558;SDS011;58108;48.094;11.838;2023-09-07T08:00:34;13.75;;;5.63;;
70558;SDS011;58108;48.094;11.838;2023-09-07T08:03:00;10.07;;;5.70;;
70558;SDS011;58108;48.094;11.838;2023-09-07T08:05:27;10.88;;;6.80;;
70558;SDS011;58108;48.094;11.838;2023-09-07T08:07:53;10.07;;;5.80;;
70558;SDS011;58108;48.094;11.838;2023-09-07T08:10:18;11.33;;;6.30;;
70558;SDS011;58108;48.094;11.838;2023-09-07T08:12:44;10.23;;;5.87;;
70558;SDS011;58108;48.094;11.838;2023-09-07T08:15:12;9.90;;;5.20;;
70558;SDS011;58108;48.094;11.838;2023-09-07T08:17:37;9.90;;;5.50;;
70558;SDS011;58108;48.094;11.838;2023-09-07T08:20:02;11.80;;;5.83;;
70558;SDS011;58108;48.094;11.838;2023-09-07T08:22:28;10.68;;;5.85;;
70558;SDS011;58108;48.094;11.838;2023-09-07T08:24:53;10.67;;;5.67;;
70558;SDS011;58108;48.094;11.838;2023-09-07T08:27:19;8.40;;;5.40;;
70558;SDS011;58108;48.094;11.838;2023-09-07T08:29:44;11.27;;;5.63;;
70558;SDS011;58108;48.094;11.838;2023-09-07T08:32:16;11.90;;;5.93;;
70558;SDS011;58108;48.094;11.838;2023-09-07T08:34:41;10.13;;;5.70;;
70558;SDS011;58108;48.094;11.838;2023-09-07T08:37:07;11.33;;;5.77;;
70558;SDS011;58108;48.094;11.838;2023-09-07T08:39:34;8.33;;;5.13;;
70558;SDS011;58108;48.094;11.838;2023-09-07T08:41:59;10.20;;;5.32;;
70558;SDS011;58108;48.094;11.838;2023-09-07T08:44:26;9.57;;;5.70;;
70558;SDS011;58108;48.094;11.838;2023-09-07T08:46:51;9.40;;;5.80;;
70558;SDS011;58108;48.094;11.838;2023-09-07T08:49:17;10.00;;;5.53;;
70558;SDS011;58108;48.094;11.838;2023-09-07T08:51:44;9.10;;;5.20;;
70558;SDS011;58108;48.094;11.838;2023-09-07T08:54:09;9.15;;;5.68;;
70558;SDS011;58108;48.094;11.838;2023-09-07T08:56:35;8.60;;;5.13;;
70558;SDS011;58108;48.094;11.838;2023-09-07T08:59:00;8.93;;;5.43;;
70558;SDS011;58108;48.094;11.838;2023-09-07T09:01:25;8.50;;;5.10;;
70558;SDS011;58108;48.094;11.838;2023-09-07T09:03:51;9.73;;;5.60;;
70558;SDS011;58108;48.094;11.838;2023-09-07T09:06:17;9.60;;;5.53;;
70558;SDS011;58108;48.094;11.838;2023-09-07T09:08:50;9.15;;;5.32;;
70558;SDS011;58108;48.094;11.838;2023-09-07T09:11:18;9.27;;;5.72;;
70558;SDS011;58108;48.094;11.838;2023-09-07T09:13:44;8.70;;;5.07;;
70558;SDS011;58108;48.094;11.838;2023-09-07T09:16:10;8.63;;;5.40;;
70558;SDS011;58108;48.094;11.838;2023-09-07T09:18:35;9.93;;;5.00;;
70558;SDS011;58108;48.094;11.838;2023-09-07T09:21:00;9.07;;;5.50;;
70558;SDS011;58108;48.094;11.838;2023-09-07T09:23:32;7.97;;;4.83;;
70558;SDS011;58108;48.094;11.838;2023-09-07T09:25:59;8.03;;;4.70;;
70558;SDS011;58108;48.094;11.838;2023-09-07T09:28:25;8.88;;;5.10;;
70558;SDS011;58108;48.094;11.838;2023-09-07T09:30:51;8.40;;;5.18;;
70558;SDS011;58108;48.094;11.838;2023-09-07T09:33:16;9.37;;;4.97;;
70558;SDS011;58108;48.094;11.838;2023-09-07T09:35:44;9.77;;;4.88;;
70558;SDS011;58108;48.094;11.838;2023-09-07T09:38:09;7.23;;;4.70;;
70558;SDS011;58108;48.094;11.838;2023-09-07T09:40:35;8.07;;;5.13;;
70558;SDS011;58108;48.094;11.838;2023-09-07T09:43:01;8.40;;;5.20;;
70558;SDS011;58108;48.094;11.838;2023-09-07T09:45:26;9.10;;;5.70;;
70558;SDS011;58108;48.094;11.838;2023-09-07T09:47:51;7.97;;;4.87;;
70558;SDS011;58108;48.094;11.838;2023-09-07T09:50:19;8.10;;;4.85;;
70558;SDS011;58108;48.094;11.838;2023-09-07T09:52:44;7.80;;;5.07;;
70558;SDS011;58108;48.094;11.838;2023-09-07T09:55:10;8.43;;;4.82;;
70558;SDS011;58108;48.094;11.838;2023-09-07T09:57:38;9.27;;;4.47;;
70558;SDS011;58108;48.094;11.838;2023-09-07T10:00:03;6.77;;;4.87;;
70558;SDS011;58108;48.094;11.838;2023-09-07T10:02:45;7.93;;;5.00;;
70558;SDS011;58108;48.094;11.838;2023-09-07T10:05:15;8.48;;;4.65;;
70558;SDS011;58108;48.094;11.838;2023-09-07T10:07:44;8.88;;;4.95;;
70558;SDS011;58108;48.094;11.838;2023-09-07T10:10:12;8.45;;;5.05;;
70558;SDS011;58108;48.094;11.838;2023-09-07T10:12:41;7.63;;;5.13;;
70558;SDS011;58108;48.094;11.838;2023-09-07T10:15:06;7.07;;;4.40;;
70558;SDS011;58108;48.094;11.838;2023-09-07T10:17:31;7.83;;;4.77;;
70558;SDS011;58108;48.094;11.838;2023-09-07T10:20:03;7.47;;;4.97;;
70558;SDS011;58108;48.094;11.838;2023-09-07T10:22:32;9.10;;;4.80;;
70558;SDS011;58108;48.094;11.838;2023-09-07T10:24:57;10.47;;;5.30;;
70558;SDS011;58108;48.094;11.838;2023-09-07T10:27:23;7.70;;;5.07;;
70558;SDS011;58108;48.094;11.838;2023-09-07T10:29:51;7.23;;;4.80;;
70558;SDS011;58108;48.094;11.838;2023-09-07T10:32:19;6.97;;;4.65;;
70558;SDS011;58108;48.094;11.838;2023-09-07T10:34:45;6.90;;;4.60;;
70558;SDS011;58108;48.094;11.838;2023-09-07T10:37:10;7.27;;;4.30;;
70558;SDS011;58108;48.094;11.838;2023-09-07T10:39:38;8.23;;;4.93;;
70558;SDS011;58108;48.094;11.838;2023-09-07T10:42:03;8.47;;;4.70;;
70558;SDS011;58108;48.094;11.838;2023-09-07T10:44:29;7.30;;;4.93;;
70558;SDS011;58108;48.094;11.838;2023-09-07T10:46:54;8.43;;;5.17;;
70558;SDS011;58108;48.094;11.838;2023-09-07T10:49:20;7.97;;;4.80;;
70558;SDS011;58108;48.094;11.838;2023-09-07T10:51:45;7.73;;;4.60;;
70558;SDS011;58108;48.094;11.838;2023-09-07T10:54:14;8.20;;;4.70;;
70558;SDS011;58108;48.094;11.838;2023-09-07T10:56:40;6.95;;;4.55;;
70558;SDS011;58108;48.094;11.838;2023-09-07T10:59:05;6.37;;;4.37;;
70558;SDS011;58108;48.094;11.838;2023-09-07T11:01:30;6.85;;;4.72;;
70558;SDS011;58108;48.094;11.838;2023-09-07T11:03:56;7.33;;;5.03;;
70558;SDS011;58108;48.094;11.838;2023-09-07T11:06:21;7.50;;;4.47;;
70558;SDS011;58108;48.094;11.838;2023-09-07T11:08:47;7.20;;;4.72;;
70558;SDS011;58108;48.094;11.838;2023-09-07T11:11:12;7.63;;;4.80;;
70558;SDS011;58108;48.094;11.838;2023-09-07T11:13:37;6.67;;;4.43;;
70558;SDS011;58108;48.094;11.838;2023-09-07T11:16:03;7.00;;;4.60;;
70558;SDS011;58108;48.094;11.838;2023-09-07T11:18:28;8.75;;;5.25;;
70558;SDS011;58108;48.094;11.838;2023-09-07T11:20:53;9.30;;;5.27;;
70558;SDS011;58108;48.094;11.838;2023-09-07T11:23:19;6.90;;;4.90;;
70558;SDS011;58108;48.094;11.838;2023-09-07T11:25:46;7.53;;;4.90;;
70558;SDS011;58108;48.094;11.838;2023-09-07T11:28:11;7.57;;;4.47;;
70558;SDS011;58108;48.094;11.838;2023-09-07T11:30:37;7.05;;;4.60;;
70558;SDS011;58108;48.094;11.838;2023-09-07T11:33:03;7.23;;;4.60;;
70558;SDS011;58108;48.094;11.838;2023-09-07T11:35:29;6.23;;;4.60;;
70558;SDS011;58108;48.094;11.838;2023-09-07T11:37:54;7.32;;;4.80;;
70558;SDS011;58108;48.094;11.838;2023-09-07T11:40:19;8.30;;;5.67;;
70558;SDS011;58108;48.094;11.838;2023-09-07T11:42:44;8.80;;;4.55;;
70558;SDS011;58108;48.094;11.838;2023-09-07T11:45:10;6.40;;;4.35;;
70558;SDS011;58108;48.094;11.838;2023-09-07T11:47:35;7.67;;;4.90;;
70558;SDS011;58108;48.094;11.838;2023-09-07T11:50:00;7.07;;;4.57;;
70558;SDS011;58108;48.094;11.838;2023-09-07T11:52:26;7.60;;;5.17;;
70558;SDS011;58108;48.094;11.838;2023-09-07T11:54:51;9.17;;;6.77;;
70558;SDS011;58108;48.094;11.838;2023-09-07T11:57:16;6.33;;;5.20;;
70558;SDS011;58108;48.094;11.838;2023-09-07T11:59:42;6.03;;;4.70;;
70558;SDS011;58108;48.094;11.838;2023-09-07T12:02:07;6.20;;;4.70;;
70558;SDS011;58108;48.094;11.838;2023-09-07T12:04:36;7.13;;;4.50;;
70558;SDS011;58108;48.094;11.838;2023-09-07T12:07:02;5.70;;;4.82;;
70558;SDS011;58108;48.094;11.838;2023-09-07T12:09:27;5.80;;;5.20;;
70558;SDS011;58108;48.094;11.838;2023-09-07T12:11:53;5.57;;;4.97;;
70558;SDS011;58108;48.094;11.838;2023-09-07T12:14:18;6.80;;;4.70;;
70558;SDS011;58108;48.094;11.838;2023-09-07T12:16:43;6.45;;;4.90;;
70558;SDS011;58108;48.094;11.838;2023-09-07T12:19:08;5.23;;;4.13;;
70558;SDS011;58108;48.094;11.838;2023-09-07T12:21:34;5.77;;;5.10;;
70558;SDS011;58108;48.094;11.838;2023-09-07T12:23:59;6.23;;;5.17;;
70558;SDS011;58108;48.094;11.838;2023-09-07T12:26:24;5.87;;;4.93;;
70558;SDS011;58108;48.094;11.838;2023-09-07T12:28:49;5.20;;;4.63;;
70558;SDS011;58108;48.094;11.838;2023-09-07T12:31:14;5.63;;;5.13;;
70558;SDS011;58108;48.094;11.838;2023-09-07T12:33:40;5.93;;;5.17;;
70558;SDS011;58108;48.094;11.838;2023-09-07T12:36:05;5.67;;;5.07;;
70558;SDS011;58108;48.094;11.838;2023-09-07T12:38:34;5.03;;;4.53;;
70558;SDS011;58108;48.094;11.838;2023-09-07T12:40:59;5.30;;;4.73;;
70558;SDS011;58108;48.094;11.838;2023-09-07T12:43:24;6.00;;;5.00;;
70558;SDS011;58108;48.094;11.838;2023-09-07T12:45:50;5.95;;;4.88;;
70558;SDS011;58108;48.094;11.838;2023-09-07T12:48:15;4.90;;;4.30;;
70558;SDS011;58108;48.094;11.838;2023-09-07T12:50:41;6.10;;;4.80;;
70558;SDS011;58108;48.094;11.838;2023-09-07T12:53:06;5.37;;;4.87;;
70558;SDS011;58108;48.094;11.838;2023-09-07T12:55:31;5.00;;;4.50;;
70558;SDS011;58108;48.094;11.838;2023-09-07T12:57:56;5.40;;;4.50;;
70558;SDS011;58108;48.094;11.838;2023-09-07T13:00:21;5.00;;;4.50;;
70558;SDS011;58108;48.094;11.838;2023-09-07T13:02:46;5.10;;;4.60;;
70558;SDS011;58108;48.094;11.838;2023-09-07T13:05:12;5.87;;;4.70;;
70558;SDS011;58108;48.094;11.838;2023-09-07T13:07:37;5.87;;;4.40;;
70558;SDS011;58108;48.094;11.838;2023-09-07T13:10:02;5.53;;;4.57;;
70558;SDS011;58108;48.094;11.838;2023-09-07T13:12:29;6.20;;;4.65;;
70558;SDS011;58108;48.094;11.838;2023-09-07T13:14:54;5.37;;;4.10;;
70558;SDS011;58108;48.094;11.838;2023-09-07T13:17:19;4.87;;;4.37;;
70558;SDS011;58108;48.094;11.838;2023-09-07T13:19:44;6.33;;;4.30;;
70558;SDS011;58108;48.094;11.838;2023-09-07T13:22:10;5.17;;;4.60;;
70558;SDS011;58108;48.094;11.838;2023-09-07T13:24:36;5.03;;;4.53;;
70558;SDS011;58108;48.094;11.838;2023-09-07T13:27:01;5.37;;;4.43;;
70558;SDS011;58108;48.094;11.838;2023-09-07T13:29:28;4.80;;;4.20;;
70558;SDS011;58108;48.094;11.838;2023-09-07T13:31:53;5.00;;;4.50;;
70558;SDS011;58108;48.094;11.838;2023-09-07T13:34:20;4.77;;;4.33;;
70558;SDS011;58108;48.094;11.838;2023-09-07T13:36:45;5.57;;;4.40;;
70558;SDS011;58108;48.094;11.838;2023-09-07T13:39:11;5.53;;;4.53;;
70558;SDS011;58108;48.094;11.838;2023-09-07T13:41:36;5.43;;;4.50;;
70558;SDS011;58108;48.094;11.838;2023-09-07T13:44:01;5.18;;;4.68;;
70558;SDS011;58108;48.094;11.838;2023-09-07T13:46:26;7.03;;;4.77;;
70558;SDS011;58108;48.094;11.838;2023-09-07T13:48:52;5.53;;;4.67;;
70558;SDS011;58108;48.094;11.838;2023-09-07T13:51:17;5.33;;;4.83;;
70558;SDS011;58108;48.094;11.838;2023-09-07T13:53:42;6.77;;;4.67;;
70558;SDS011;58108;48.094;11.838;2023-09-07T13:56:07;8.77;;;5.90;;
70558;SDS011;58108;48.094;11.838;2023-09-07T13:58:32;6.67;;;5.03;;
70558;SDS011;58108;48.094;11.838;2023-09-07T14:00:57;5.10;;;4.60;;
70558;SDS011;58108;48.094;11.838;2023-09-07T14:03:23;5.23;;;4.20;;
70558;SDS011;58108;48.094;11.838;2023-09-07T14:05:48;4.43;;;3.87;;
70558;SDS011;58108;48.094;11.838;2023-09-07T14:08:13;5.00;;;4.10;;
70558;SDS011;58108;48.094;11.838;2023-09-07T14:10:38;5.03;;;4.30;;
70558;SDS011;58108;48.094;11.838;2023-09-07T14:13:03;5.97;;;4.20;;
70558;SDS011;58108;48.094;11.838;2023-09-07T14:15:29;6.67;;;5.73;;
70558;SDS011;58108;48.094;11.838;2023-09-07T14:17:54;4.65;;;4.18;;
70558;SDS011;58108;48.094;11.838;2023-09-07T14:20:20;7.27;;;4.70;;
70558;SDS011;58108;48.094;11.838;2023-09-07T14:22:45;5.80;;;5.20;;